sensor_id;sensor_type;location;lat;lon;timestamp;pressure;altitude;pressure_sealevel;temperature;humidity
38303;BME280;24103;42.454;27.400;2023-06-14T00:01:17;100312.41;;;16.18;100.00
38303;BME280;24103;42.454;27.400;2023-06-14T00:03:45;100307.38;;;16.15;100.00
38303;BME280;24103;42.454;27.400;2023-06-14T00:06:12;100302.28;;;16.12;100.00
38303;BME280;24103;42.454;27.400;2023-06-14T00:08:38;100307.50;;;16.14;100.00
38303;BME280;24103;42.454;27.400;2023-06-14T00:11:05;100311.63;;;16.07;100.00
38303;BME280;24103;42.454;27.400;2023-06-14T00:13:30;100307.69;;;16.01;100.00
38303;BME280;24103;42.454;27.400;2023-06-14T00:15:56;100303.06;;;16.03;100.00
38303;BME280;24103;42.454;27.400;2023-06-14T00:18:22;100295.31;;;16.00;100.00
38303;BME280;24103;42.454;27.400;2023-06-14T00:20:49;100304.91;;;16.02;100.00
38303;BME280;24103;42.454;27.400;2023-06-14T00:23:15;100295.38;;;16.10;100.00
38303;BME280;24103;42.454;27.400;2023-06-14T00:25:40;100301.31;;;16.13;100.00
38303;BME280;24103;42.454;27.400;2023-06-14T00:28:06;100300.59;;;16.11;100.00
38303;BME280;24103;42.454;27.400;2023-06-14T00:30:31;100307.38;;;16.15;100.00
38303;BME280;24103;42.454;27.400;2023-06-14T00:32:57;100298.91;;;16.10;100.00
38303;BME280;24103;42.454;27.400;2023-06-14T00:35:23;100301.31;;;16.13;100.00
38303;BME280;24103;42.454;27.400;2023-06-14T00:37:49;100299.38;;;16.15;100.00
38303;BME280;24103;42.454;27.400;2023-06-14T00:40:14;100295.19;;;16.23;100.00
38303;BME280;24103;42.454;27.400;2023-06-14T00:42:40;100305.22;;;16.30;100.00
38303;BME280;24103;42.454;27.400;2023-06-14T00:45:06;100297.47;;;16.27;100.00
38303;BME280;24103;42.454;27.400;2023-06-14T00:47:31;100297.84;;;16.23;100.00
38303;BME280;24103;42.454;27.400;2023-06-14T00:49:58;100309.03;;;16.16;100.00
38303;BME280;24103;42.454;27.400;2023-06-14T00:52:24;100303.72;;;16.16;100.00
38303;BME280;24103;42.454;27.400;2023-06-14T00:54:50;100296.41;;;16.18;100.00
38303;BME280;24103;42.454;27.400;2023-06-14T00:57:16;100292.78;;;16.19;100.00
38303;BME280;24103;42.454;27.400;2023-06-14T00:59:44;100294.09;;;16.25;100.00
38303;BME280;24103;42.454;27.400;2023-06-14T01:02:10;100290.69;;;16.23;100.00
38303;BME280;24103;42.454;27.400;2023-06-14T01:04:36;100293.91;;;16.17;100.00
38303;BME280;24103;42.454;27.400;2023-06-14T01:09:58;100291.19;;;16.07;100.00
38303;BME280;24103;42.454;27.400;2023-06-14T01:12:39;100289.75;;;16.03;100.00
38303;BME280;24103;42.454;27.400;2023-06-14T01:15:10;100291.38;;;15.94;100.00
38303;BME280;24103;42.454;27.400;2023-06-14T01:17:37;100284.03;;;15.87;100.00
38303;BME280;24103;42.454;27.400;2023-06-14T01:20:07;100296.88;;;15.81;100.00
38303;BME280;24103;42.454;27.400;2023-06-14T01:22:35;100296.06;;;15.81;100.00
38303;BME280;24103;42.454;27.400;2023-06-14T01:25:01;100293.66;;;15.66;100.00
38303;BME280;24103;42.454;27.400;2023-06-14T01:27:26;100293.56;;;15.57;100.00
38303;BME280;24103;42.454;27.400;2023-06-14T01:29:55;100290.69;;;15.48;100.00
38303;BME280;24103;42.454;27.400;2023-06-14T01:32:24;100286.75;;;15.43;100.00
38303;BME280;24103;42.454;27.400;2023-06-14T01:34:51;100281.19;;;15.35;100.00
38303;BME280;24103;42.454;27.400;2023-06-14T01:37:17;100300.09;;;15.32;100.00
38303;BME280;24103;42.454;27.400;2023-06-14T01:39:44;100298.13;;;15.34;100.00
38303;BME280;24103;42.454;27.400;2023-06-14T01:42:10;100307.63;;;15.47;100.00
38303;BME280;24103;42.454;27.400;2023-06-14T01:44:37;100296.75;;;15.51;100.00
38303;BME280;24103;42.454;27.400;2023-06-14T01:47:03;100297.72;;;15.50;100.00
38303;BME280;24103;42.454;27.400;2023-06-14T01:49:29;100301.34;;;15.48;100.00
38303;BME280;24103;42.454;27.400;2023-06-14T01:51:54;100295.22;;;15.37;100.00
38303;BME280;24103;42.454;27.400;2023-06-14T01:54:20;100299.25;;;15.31;100.00
38303;BME280;24103;42.454;27.400;2023-06-14T01:56:46;100294.88;;;15.30;100.00
38303;BME280;24103;42.454;27.400;2023-06-14T01:59:12;100301.69;;;15.23;100.00
38303;BME280;24103;42.454;27.400;2023-06-14T02:01:37;100296.84;;;15.28;100.00
38303;BME280;24103;42.454;27.400;2023-06-14T02:04:03;100300.81;;;15.22;100.00
38303;BME280;24103;42.454;27.400;2023-06-14T02:06:28;100308.94;;;15.21;100.00
38303;BME280;24103;42.454;27.400;2023-06-14T02:08:54;100308.09;;;15.20;100.00
38303;BME280;24103;42.454;27.400;2023-06-14T02:11:19;100308.34;;;15.17;100.00
38303;BME280;24103;42.454;27.400;2023-06-14T02:13:45;100307.00;;;15.23;100.00
38303;BME280;24103;42.454;27.400;2023-06-14T02:16:10;100305.31;;;15.22;100.00
38303;BME280;24103;42.454;27.400;2023-06-14T02:18:36;100292.84;;;15.22;100.00
38303;BME280;24103;42.454;27.400;2023-06-14T02:21:02;100306.16;;;15.22;100.00
38303;BME280;24103;42.454;27.400;2023-06-14T02:23:27;100311.25;;;15.14;100.00
38303;BME280;24103;42.454;27.400;2023-06-14T02:25:52;100304.25;;;15.13;100.00
38303;BME280;24103;42.454;27.400;2023-06-14T02:28:18;100302.53;;;15.12;100.00
38303;BME280;24103;42.454;27.400;2023-06-14T02:30:43;100307.50;;;15.17;100.00
38303;BME280;24103;42.454;27.400;2023-06-14T02:33:09;100307.59;;;15.26;100.00
38303;BME280;24103;42.454;27.400;2023-06-14T02:35:38;100304.19;;;15.24;100.00
38303;BME280;24103;42.454;27.400;2023-06-14T02:38:03;100300.94;;;15.21;100.00
38303;BME280;24103;42.454;27.400;2023-06-14T02:40:31;100307.13;;;15.21;100.00
38303;BME280;24103;42.454;27.400;2023-06-14T02:42:56;100308.69;;;15.24;100.00
38303;BME280;24103;42.454;27.400;2023-06-14T02:45:22;100310.00;;;15.29;100.00
38303;BME280;24103;42.454;27.400;2023-06-14T02:47:47;100313.72;;;15.38;100.00
38303;BME280;24103;42.454;27.400;2023-06-14T02:50:13;100313.25;;;15.44;100.00
38303;BME280;24103;42.454;27.400;2023-06-14T02:52:38;100320.91;;;15.59;100.00
38303;BME280;24103;42.454;27.400;2023-06-14T02:55:07;100321.25;;;15.65;100.00
38303;BME280;24103;42.454;27.400;2023-06-14T02:57:33;100331.16;;;15.75;100.00
38303;BME280;24103;42.454;27.400;2023-06-14T02:59:58;100323.16;;;16.07;100.00
38303;BME280;24103;42.454;27.400;2023-06-14T03:02:24;100324.91;;;16.70;100.00
38303;BME280;24103;42.454;27.400;2023-06-14T03:04:49;100323.59;;;17.65;100.00
38303;BME280;24103;42.454;27.400;2023-06-14T03:07:15;100324.38;;;18.44;100.00
38303;BME280;24103;42.454;27.400;2023-06-14T03:09:45;100313.78;;;19.17;100.00
38303;BME280;24103;42.454;27.400;2023-06-14T03:12:10;100313.53;;;19.92;100.00
38303;BME280;24103;42.454;27.400;2023-06-14T03:14:36;100313.66;;;20.87;100.00
38303;BME280;24103;42.454;27.400;2023-06-14T03:17:02;100295.72;;;22.13;100.00
38303;BME280;24103;42.454;27.400;2023-06-14T03:19:30;100282.81;;;23.35;99.85
38303;BME280;24103;42.454;27.400;2023-06-14T03:21:55;100267.56;;;24.71;88.23
38303;BME280;24103;42.454;27.400;2023-06-14T03:24:24;100259.19;;;26.04;75.89
38303;BME280;24103;42.454;27.400;2023-06-14T03:26:49;100243.94;;;27.34;65.84
38303;BME280;24103;42.454;27.400;2023-06-14T03:29:15;100213.94;;;28.68;52.62
38303;BME280;24103;42.454;27.400;2023-06-14T03:31:57;100205.75;;;29.45;47.89
38303;BME280;24103;42.454;27.400;2023-06-14T03:34:23;100201.94;;;29.97;44.98
38303;BME280;24103;42.454;27.400;2023-06-14T03:36:48;100198.72;;;30.43;43.46
38303;BME280;24103;42.454;27.400;2023-06-14T03:39:14;100193.94;;;31.18;42.41
38303;BME280;24103;42.454;27.400;2023-06-14T03:41:40;100183.31;;;31.99;40.73
38303;BME280;24103;42.454;27.400;2023-06-14T03:44:05;100174.53;;;32.61;38.50
38303;BME280;24103;42.454;27.400;2023-06-14T03:46:31;100175.63;;;33.06;36.95
38303;BME280;24103;42.454;27.400;2023-06-14T03:48:56;100168.47;;;33.34;35.63
38303;BME280;24103;42.454;27.400;2023-06-14T03:51:22;100160.25;;;33.68;35.48
38303;BME280;24103;42.454;27.400;2023-06-14T03:53:48;100166.34;;;34.31;34.05
38303;BME280;24103;42.454;27.400;2023-06-14T03:56:13;100164.69;;;34.79;33.30
38303;BME280;24103;42.454;27.400;2023-06-14T03:58:38;100168.22;;;35.02;32.61
38303;BME280;24103;42.454;27.400;2023-06-14T04:01:04;100160.59;;;35.79;31.69
38303;BME280;24103;42.454;27.400;2023-06-14T04:03:32;100155.09;;;36.37;31.04
38303;BME280;24103;42.454;27.400;2023-06-14T04:06:00;100152.47;;;37.60;29.52
38303;BME280;24103;42.454;27.400;2023-06-14T04:08:26;100152.16;;;38.53;28.23
38303;BME280;24103;42.454;27.400;2023-06-14T04:10:51;100146.34;;;39.34;26.64
38303;BME280;24103;42.454;27.400;2023-06-14T04:13:16;100138.56;;;39.89;25.87
38303;BME280;24103;42.454;27.400;2023-06-14T04:15:42;100137.66;;;40.42;24.97
38303;BME280;24103;42.454;27.400;2023-06-14T04:18:10;100131.66;;;40.54;23.89
38303;BME280;24103;42.454;27.400;2023-06-14T04:20:36;100140.72;;;40.60;24.63
38303;BME280;24103;42.454;27.400;2023-06-14T04:23:12;100143.97;;;41.19;23.73
38303;BME280;24103;42.454;27.400;2023-06-14T04:25:38;100129.91;;;41.90;22.51
38303;BME280;24103;42.454;27.400;2023-06-14T04:28:04;100137.38;;;42.31;22.55
38303;BME280;24103;42.454;27.400;2023-06-14T04:30:30;100138.41;;;43.17;21.38
38303;BME280;24103;42.454;27.400;2023-06-14T04:32:57;100139.34;;;43.66;20.96
38303;BME280;24103;42.454;27.400;2023-06-14T04:35:22;100138.28;;;43.93;20.70
38303;BME280;24103;42.454;27.400;2023-06-14T04:37:50;100142.81;;;44.29;20.16
38303;BME280;24103;42.454;27.400;2023-06-14T04:40:16;100137.59;;;44.80;19.35
38303;BME280;24103;42.454;27.400;2023-06-14T04:42:41;100134.53;;;45.29;18.71
38303;BME280;24103;42.454;27.400;2023-06-14T04:45:10;100144.25;;;45.79;18.77
38303;BME280;24103;42.454;27.400;2023-06-14T04:47:36;100148.56;;;46.27;18.28
38303;BME280;24103;42.454;27.400;2023-06-14T04:50:03;100146.94;;;46.47;17.50
38303;BME280;24103;42.454;27.400;2023-06-14T04:52:28;100150.81;;;46.76;18.11
38303;BME280;24103;42.454;27.400;2023-06-14T04:54:55;100154.31;;;47.06;17.47
38303;BME280;24103;42.454;27.400;2023-06-14T04:57:21;100159.53;;;47.41;17.15
38303;BME280;24103;42.454;27.400;2023-06-14T04:59:47;100158.97;;;48.22;16.88
38303;BME280;24103;42.454;27.400;2023-06-14T05:02:13;100161.03;;;48.38;15.99
38303;BME280;24103;42.454;27.400;2023-06-14T05:04:39;100164.34;;;48.27;16.08
38303;BME280;24103;42.454;27.400;2023-06-14T05:07:08;100159.34;;;48.21;15.68
38303;BME280;24103;42.454;27.400;2023-06-14T05:09:35;100162.84;;;47.93;15.96
38303;BME280;24103;42.454;27.400;2023-06-14T05:12:01;100170.91;;;47.82;16.17
38303;BME280;24103;42.454;27.400;2023-06-14T05:14:26;100174.31;;;47.75;16.04
38303;BME280;24103;42.454;27.400;2023-06-14T05:16:52;100183.84;;;47.99;16.10
38303;BME280;24103;42.454;27.400;2023-06-14T05:19:18;100186.19;;;48.75;16.32
38303;BME280;24103;42.454;27.400;2023-06-14T05:21:46;100184.91;;;49.00;15.61
38303;BME280;24103;42.454;27.400;2023-06-14T05:24:13;100183.94;;;48.40;15.84
38303;BME280;24103;42.454;27.400;2023-06-14T05:26:38;100189.63;;;48.56;15.25
38303;BME280;24103;42.454;27.400;2023-06-14T05:29:04;100173.75;;;48.88;14.82
38303;BME280;24103;42.454;27.400;2023-06-14T05:31:29;100183.34;;;49.31;14.73
38303;BME280;24103;42.454;27.400;2023-06-14T05:33:55;100182.00;;;49.73;13.94
38303;BME280;24103;42.454;27.400;2023-06-14T05:36:20;100185.09;;;49.68;14.20
38303;BME280;24103;42.454;27.400;2023-06-14T05:38:49;100184.50;;;50.26;13.93
38303;BME280;24103;42.454;27.400;2023-06-14T05:41:16;100194.03;;;50.57;13.93
38303;BME280;24103;42.454;27.400;2023-06-14T05:43:41;100195.34;;;51.02;13.61
38303;BME280;24103;42.454;27.400;2023-06-14T05:46:06;100202.78;;;51.33;13.86
38303;BME280;24103;42.454;27.400;2023-06-14T05:48:32;100199.03;;;51.26;13.34
38303;BME280;24103;42.454;27.400;2023-06-14T05:50:58;100193.59;;;51.17;13.24
38303;BME280;24103;42.454;27.400;2023-06-14T05:53:24;100208.34;;;51.76;13.04
38303;BME280;24103;42.454;27.400;2023-06-14T05:55:50;100206.44;;;52.33;12.87
38303;BME280;24103;42.454;27.400;2023-06-14T05:58:20;100200.50;;;51.89;13.36
38303;BME280;24103;42.454;27.400;2023-06-14T06:00:46;100202.88;;;51.87;12.73
38303;BME280;24103;42.454;27.400;2023-06-14T06:03:11;100207.59;;;51.79;12.88
38303;BME280;24103;42.454;27.400;2023-06-14T06:05:38;100215.94;;;51.26;13.54
38303;BME280;24103;42.454;27.400;2023-06-14T06:08:04;100218.28;;;51.70;13.30
38303;BME280;24103;42.454;27.400;2023-06-14T06:10:29;100224.41;;;52.25;12.91
38303;BME280;24103;42.454;27.400;2023-06-14T06:12:55;100222.16;;;52.95;12.64
38303;BME280;24103;42.454;27.400;2023-06-14T06:15:21;100221.56;;;53.57;12.21
38303;BME280;24103;42.454;27.400;2023-06-14T06:17:46;100214.28;;;54.05;11.61
38303;BME280;24103;42.454;27.400;2023-06-14T06:20:12;100221.94;;;54.71;11.48
38303;BME280;24103;42.454;27.400;2023-06-14T06:22:38;100214.25;;;54.71;11.79
38303;BME280;24103;42.454;27.400;2023-06-14T06:25:04;100210.31;;;55.08;11.60
38303;BME280;24103;42.454;27.400;2023-06-14T06:27:30;100206.47;;;54.54;11.11
38303;BME280;24103;42.454;27.400;2023-06-14T06:29:55;100207.47;;;54.13;11.72
38303;BME280;24103;42.454;27.400;2023-06-14T06:32:46;100215.97;;;54.17;12.08
38303;BME280;24103;42.454;27.400;2023-06-14T06:35:12;100212.13;;;52.10;12.85
38303;BME280;24103;42.454;27.400;2023-06-14T06:37:38;100218.22;;;51.89;12.63
38303;BME280;24103;42.454;27.400;2023-06-14T06:40:04;100222.72;;;52.21;12.88
38303;BME280;24103;42.454;27.400;2023-06-14T06:42:31;100218.31;;;53.14;12.44
38303;BME280;24103;42.454;27.400;2023-06-14T06:44:57;100212.16;;;53.42;12.30
38303;BME280;24103;42.454;27.400;2023-06-14T06:47:22;100220.81;;;52.55;12.71
38303;BME280;24103;42.454;27.400;2023-06-14T06:49:48;100224.50;;;52.59;12.92
38303;BME280;24103;42.454;27.400;2023-06-14T06:52:14;100215.69;;;53.77;11.84
38303;BME280;24103;42.454;27.400;2023-06-14T06:54:39;100227.38;;;52.09;12.97
38303;BME280;24103;42.454;27.400;2023-06-14T06:57:05;100222.16;;;52.08;13.02
38303;BME280;24103;42.454;27.400;2023-06-14T06:59:31;100226.28;;;51.91;13.25
38303;BME280;24103;42.454;27.400;2023-06-14T07:01:57;100227.38;;;50.23;14.57
38303;BME280;24103;42.454;27.400;2023-06-14T07:04:22;100236.59;;;47.72;15.88
38303;BME280;24103;42.454;27.400;2023-06-14T07:06:48;100239.28;;;48.55;15.48
38303;BME280;24103;42.454;27.400;2023-06-14T07:09:13;100235.72;;;49.11;14.82
38303;BME280;24103;42.454;27.400;2023-06-14T07:11:41;100244.88;;;47.35;16.22
38303;BME280;24103;42.454;27.400;2023-06-14T07:14:07;100240.34;;;46.38;16.61
38303;BME280;24103;42.454;27.400;2023-06-14T07:16:33;100250.69;;;42.93;19.65
38303;BME280;24103;42.454;27.400;2023-06-14T07:18:58;100261.44;;;40.12;22.56
38303;BME280;24103;42.454;27.400;2023-06-14T07:21:24;100270.97;;;38.22;24.68
38303;BME280;24103;42.454;27.400;2023-06-14T07:23:52;100276.81;;;37.74;25.35
38303;BME280;24103;42.454;27.400;2023-06-14T07:26:17;100284.06;;;36.76;26.44
38303;BME280;24103;42.454;27.400;2023-06-14T07:28:43;100292.91;;;35.93;27.89
38303;BME280;24103;42.454;27.400;2023-06-14T07:31:10;100289.44;;;35.43;28.57
38303;BME280;24103;42.454;27.400;2023-06-14T07:33:36;100304.53;;;34.91;29.33
38303;BME280;24103;42.454;27.400;2023-06-14T07:36:02;100300.66;;;34.09;30.38
38303;BME280;24103;42.454;27.400;2023-06-14T07:38:28;100303.03;;;33.26;31.94
38303;BME280;24103;42.454;27.400;2023-06-14T07:40:53;100300.91;;;32.87;32.63
38303;BME280;24103;42.454;27.400;2023-06-14T07:43:19;100306.56;;;32.33;33.57
38303;BME280;24103;42.454;27.400;2023-06-14T07:45:44;100308.06;;;35.95;29.05
38303;BME280;24103;42.454;27.400;2023-06-14T07:48:10;100301.50;;;38.51;25.89
38303;BME280;24103;42.454;27.400;2023-06-14T07:50:36;100292.78;;;37.83;26.44
38303;BME280;24103;42.454;27.400;2023-06-14T07:53:01;100302.03;;;36.41;28.11
38303;BME280;24103;42.454;27.400;2023-06-14T07:55:27;100304.06;;;37.40;28.02
38303;BME280;24103;42.454;27.400;2023-06-14T07:57:53;100290.47;;;41.06;23.22
38303;BME280;24103;42.454;27.400;2023-06-14T08:00:20;100282.03;;;44.87;19.57
38303;BME280;24103;42.454;27.400;2023-06-14T08:02:45;100269.59;;;47.46;16.78
38303;BME280;24103;42.454;27.400;2023-06-14T08:05:12;100261.09;;;48.25;16.33
38303;BME280;24103;42.454;27.400;2023-06-14T08:07:38;100266.19;;;48.72;15.61
38303;BME280;24103;42.454;27.400;2023-06-14T08:10:05;100261.28;;;48.69;15.05
38303;BME280;24103;42.454;27.400;2023-06-14T08:12:32;100265.59;;;46.11;16.66
38303;BME280;24103;42.454;27.400;2023-06-14T08:14:57;100267.81;;;43.99;18.83
38303;BME280;24103;42.454;27.400;2023-06-14T08:17:23;100273.81;;;42.38;20.21
38303;BME280;24103;42.454;27.400;2023-06-14T08:19:48;100277.22;;;41.22;21.43
38303;BME280;24103;42.454;27.400;2023-06-14T08:22:14;100279.28;;;39.72;22.87
38303;BME280;24103;42.454;27.400;2023-06-14T08:24:39;100286.13;;;38.25;24.31
38303;BME280;24103;42.454;27.400;2023-06-14T08:27:06;100291.81;;;36.95;26.11
38303;BME280;24103;42.454;27.400;2023-06-14T08:29:32;100292.78;;;35.77;27.49
38303;BME280;24103;42.454;27.400;2023-06-14T08:31:57;100298.25;;;34.96;29.10
38303;BME280;24103;42.454;27.400;2023-06-14T08:34:23;100297.47;;;34.34;29.59
38303;BME280;24103;42.454;27.400;2023-06-14T08:36:50;100295.16;;;33.29;30.95
38303;BME280;24103;42.454;27.400;2023-06-14T08:39:16;100298.59;;;32.67;32.28
38303;BME280;24103;42.454;27.400;2023-06-14T08:41:45;100299.28;;;32.74;32.72
38303;BME280;24103;42.454;27.400;2023-06-14T08:44:11;100294.44;;;33.34;32.43
38303;BME280;24103;42.454;27.400;2023-06-14T08:46:37;100292.19;;;33.48;31.74
38303;BME280;24103;42.454;27.400;2023-06-14T08:49:03;100298.72;;;33.01;31.57
38303;BME280;24103;42.454;27.400;2023-06-14T08:51:32;100301.91;;;32.45;32.35
38303;BME280;24103;42.454;27.400;2023-06-14T08:54:02;100296.66;;;31.85;32.52
38303;BME280;24103;42.454;27.400;2023-06-14T08:56:30;100306.31;;;31.27;32.93
38303;BME280;24103;42.454;27.400;2023-06-14T08:58:57;100311.09;;;30.82;33.71
38303;BME280;24103;42.454;27.400;2023-06-14T09:01:25;100317.25;;;30.96;34.21
38303;BME280;24103;42.454;27.400;2023-06-14T09:03:52;100315.25;;;31.52;33.54
38303;BME280;24103;42.454;27.400;2023-06-14T09:06:20;100304.06;;;32.31;32.69
38303;BME280;24103;42.454;27.400;2023-06-14T09:08:48;100296.16;;;33.11;31.42
38303;BME280;24103;42.454;27.400;2023-06-14T09:11:16;100295.34;;;33.39;30.92
38303;BME280;24103;42.454;27.400;2023-06-14T09:13:44;100301.59;;;32.94;31.40
38303;BME280;24103;42.454;27.400;2023-06-14T09:16:13;100302.16;;;32.20;32.22
38303;BME280;24103;42.454;27.400;2023-06-14T09:18:40;100299.00;;;31.27;32.96
38303;BME280;24103;42.454;27.400;2023-06-14T09:21:10;100306.69;;;30.63;33.83
38303;BME280;24103;42.454;27.400;2023-06-14T09:23:40;100305.97;;;30.30;34.68
38303;BME280;24103;42.454;27.400;2023-06-14T09:26:16;100308.41;;;30.39;35.26
38303;BME280;24103;42.454;27.400;2023-06-14T09:28:44;100305.31;;;30.72;34.79
38303;BME280;24103;42.454;27.400;2023-06-14T09:31:11;100296.00;;;30.98;34.48
38303;BME280;24103;42.454;27.400;2023-06-14T09:33:37;100290.03;;;31.20;33.62
38303;BME280;24103;42.454;27.400;2023-06-14T09:36:03;100295.50;;;31.50;32.85
38303;BME280;24103;42.454;27.400;2023-06-14T09:38:30;100290.56;;;31.71;33.02
38303;BME280;24103;42.454;27.400;2023-06-14T09:40:57;100289.75;;;31.82;32.35
38303;BME280;24103;42.454;27.400;2023-06-14T09:43:23;100283.72;;;31.80;32.11
38303;BME280;24103;42.454;27.400;2023-06-14T09:45:50;100296.84;;;31.59;32.50
38303;BME280;24103;42.454;27.400;2023-06-14T09:48:16;100296.00;;;31.17;33.32
38303;BME280;24103;42.454;27.400;2023-06-14T09:50:46;100294.72;;;31.01;33.67
38303;BME280;24103;42.454;27.400;2023-06-14T09:53:13;100291.09;;;31.07;33.57
38303;BME280;24103;42.454;27.400;2023-06-14T09:55:40;100294.38;;;30.97;32.94
38303;BME280;24103;42.454;27.400;2023-06-14T09:58:07;100294.59;;;30.77;32.86
38303;BME280;24103;42.454;27.400;2023-06-14T10:00:34;100300.19;;;30.82;33.54
38303;BME280;24103;42.454;27.400;2023-06-14T10:03:06;100308.69;;;30.56;35.14
38303;BME280;24103;42.454;27.400;2023-06-14T10:05:36;100306.31;;;30.16;36.79
38303;BME280;24103;42.454;27.400;2023-06-14T10:08:08;100314.66;;;29.95;37.44
38303;BME280;24103;42.454;27.400;2023-06-14T10:10:35;100323.44;;;29.98;37.87
38303;BME280;24103;42.454;27.400;2023-06-14T10:13:03;100321.72;;;29.78;38.52
38303;BME280;24103;42.454;27.400;2023-06-14T10:21:43;100325.75;;;29.30;39.18
38303;BME280;24103;42.454;27.400;2023-06-14T10:24:13;100333.34;;;29.21;40.02
38303;BME280;24103;42.454;27.400;2023-06-14T10:26:51;100340.53;;;29.02;39.92
38303;BME280;24103;42.454;27.400;2023-06-14T10:29:17;100331.41;;;28.77;40.81
38303;BME280;24103;42.454;27.400;2023-06-14T10:31:47;100336.47;;;28.60;40.84
38303;BME280;24103;42.454;27.400;2023-06-14T10:34:29;100335.66;;;28.33;40.85
38303;BME280;24103;42.454;27.400;2023-06-14T10:37:11;100339.63;;;28.43;41.71
38303;BME280;24103;42.454;27.400;2023-06-14T10:39:42;100338.56;;;28.38;40.94
38303;BME280;24103;42.454;27.400;2023-06-14T10:42:09;100337.53;;;28.59;40.45
38303;BME280;24103;42.454;27.400;2023-06-14T10:47:10;100341.91;;;28.60;40.02
38303;BME280;24103;42.454;27.400;2023-06-14T10:49:44;100337.09;;;28.48;40.43
38303;BME280;24103;42.454;27.400;2023-06-14T10:52:15;100346.28;;;28.61;41.20
38303;BME280;24103;42.454;27.400;2023-06-14T10:57:35;100339.59;;;28.70;42.46
38303;BME280;24103;42.454;27.400;2023-06-14T11:00:03;100333.28;;;28.83;41.83
38303;BME280;24103;42.454;27.400;2023-06-14T11:05:23;100336.63;;;28.78;41.10
38303;BME280;24103;42.454;27.400;2023-06-14T11:10:59;100347.94;;;28.68;42.17
38303;BME280;24103;42.454;27.400;2023-06-14T11:13:25;100330.19;;;28.53;42.29
38303;BME280;24103;42.454;27.400;2023-06-14T11:15:51;100347.50;;;28.78;42.37
38303;BME280;24103;42.454;27.400;2023-06-14T11:18:18;100337.63;;;28.97;42.47
38303;BME280;24103;42.454;27.400;2023-06-14T11:20:46;100336.28;;;29.13;41.77
38303;BME280;24103;42.454;27.400;2023-06-14T11:23:12;100340.91;;;29.13;41.82
38303;BME280;24103;42.454;27.400;2023-06-14T11:25:37;100344.69;;;29.05;40.91
38303;BME280;24103;42.454;27.400;2023-06-14T11:28:03;100337.16;;;29.00;40.89
38303;BME280;24103;42.454;27.400;2023-06-14T11:30:29;100337.75;;;29.22;40.52
38303;BME280;24103;42.454;27.400;2023-06-14T11:32:55;100338.50;;;29.36;40.45
38303;BME280;24103;42.454;27.400;2023-06-14T11:35:25;100337.59;;;29.49;40.17
38303;BME280;24103;42.454;27.400;2023-06-14T11:37:56;100331.97;;;29.44;40.24
38303;BME280;24103;42.454;27.400;2023-06-14T11:40:26;100325.94;;;29.42;40.37
38303;BME280;24103;42.454;27.400;2023-06-14T11:42:58;100334.88;;;29.49;40.40
38303;BME280;24103;42.454;27.400;2023-06-14T11:45:25;100325.06;;;29.41;39.74
38303;BME280;24103;42.454;27.400;2023-06-14T11:47:50;100322.41;;;29.67;39.65
38303;BME280;24103;42.454;27.400;2023-06-14T11:50:16;100325.09;;;30.24;39.16
38303;BME280;24103;42.454;27.400;2023-06-14T11:52:42;100319.56;;;30.93;37.79
38303;BME280;24103;42.454;27.400;2023-06-14T11:55:07;100316.38;;;31.14;36.88
38303;BME280;24103;42.454;27.400;2023-06-14T11:57:34;100326.28;;;30.90;37.10
38303;BME280;24103;42.454;27.400;2023-06-14T12:00:03;100312.00;;;30.39;37.49
38303;BME280;24103;42.454;27.400;2023-06-14T12:02:31;100309.53;;;30.06;38.05
38303;BME280;24103;42.454;27.400;2023-06-14T12:05:04;100306.16;;;30.10;38.29
38303;BME280;24103;42.454;27.400;2023-06-14T12:07:33;100318.69;;;29.93;38.42
38303;BME280;24103;42.454;27.400;2023-06-14T12:12:26;100315.94;;;29.29;39.57
38303;BME280;24103;42.454;27.400;2023-06-14T12:14:52;100325.06;;;29.41;39.56
38303;BME280;24103;42.454;27.400;2023-06-14T12:17:19;100316.78;;;29.62;39.17
38303;BME280;24103;42.454;27.400;2023-06-14T12:19:46;100318.00;;;29.98;39.20
38303;BME280;24103;42.454;27.400;2023-06-14T12:22:13;100307.41;;;30.33;38.63
38303;BME280;24103;42.454;27.400;2023-06-14T12:24:39;100309.44;;;30.63;38.11
38303;BME280;24103;42.454;27.400;2023-06-14T12:27:05;100311.41;;;30.56;37.79
38303;BME280;24103;42.454;27.400;2023-06-14T12:29:31;100313.06;;;30.13;38.53
38303;BME280;24103;42.454;27.400;2023-06-14T12:31:57;100298.59;;;29.87;38.46
38303;BME280;24103;42.454;27.400;2023-06-14T12:34:23;100300.22;;;29.63;38.88
38303;BME280;24103;42.454;27.400;2023-06-14T12:36:53;100294.78;;;29.63;39.04
38303;BME280;24103;42.454;27.400;2023-06-14T12:39:19;100300.16;;;29.76;39.41
38303;BME280;24103;42.454;27.400;2023-06-14T12:41:46;100296.00;;;29.67;39.08
38303;BME280;24103;42.454;27.400;2023-06-14T12:44:12;100290.19;;;29.64;38.73
38303;BME280;24103;42.454;27.400;2023-06-14T12:46:38;100301.72;;;29.91;38.79
38303;BME280;24103;42.454;27.400;2023-06-14T12:49:13;100301.31;;;30.12;38.36
38303;BME280;24103;42.454;27.400;2023-06-14T12:51:39;100303.59;;;30.34;37.83
38303;BME280;24103;42.454;27.400;2023-06-14T12:54:05;100307.59;;;30.57;37.33
38303;BME280;24103;42.454;27.400;2023-06-14T12:56:31;100295.25;;;30.73;37.26
38303;BME280;24103;42.454;27.400;2023-06-14T12:58:58;100295.41;;;30.96;36.73